sensor_id;sensor_type;location;lat;lon;timestamp;P1;durP1;ratioP1;P2;durP2;ratioP2
67037;SDS011;53940;53.204;6.590;2024-01-11T00:02:45;1.38;;;0.82;;
67037;SDS011;53940;53.204;6.590;2024-01-11T00:05:45;1.23;;;0.70;;
67037;SDS011;53940;53.204;6.590;2024-01-11T00:08:46;1.73;;;0.82;;
67037;SDS011;53940;53.204;6.590;2024-01-11T00:11:46;1.80;;;1.10;;
67037;SDS011;53940;53.204;6.590;2024-01-11T00:14:46;1.80;;;1.00;;
67037;SDS011;53940;53.204;6.590;2024-01-11T00:17:47;2.15;;;1.00;;
67037;SDS011;53940;53.204;6.590;2024-01-11T00:20:47;1.50;;;1.02;;
67037;SDS011;53940;53.204;6.590;2024-01-11T00:23:48;2.13;;;1.08;;
67037;SDS011;53940;53.204;6.590;2024-01-11T00:26:49;1.65;;;1.10;;
67037;SDS011;53940;53.204;6.590;2024-01-11T00:29:49;2.10;;;1.10;;
67037;SDS011;53940;53.204;6.590;2024-01-11T00:32:49;1.70;;;1.00;;
67037;SDS011;53940;53.204;6.590;2024-01-11T00:35:50;1.98;;;1.10;;
67037;SDS011;53940;53.204;6.590;2024-01-11T00:38:50;1.48;;;1.00;;
67037;SDS011;53940;53.204;6.590;2024-01-11T00:41:51;1.60;;;1.20;;
67037;SDS011;53940;53.204;6.590;2024-01-11T00:44:51;1.63;;;1.30;;
67037;SDS011;53940;53.204;6.590;2024-01-11T00:47:51;1.75;;;1.13;;
67037;SDS011;53940;53.204;6.590;2024-01-11T00:50:52;1.80;;;1.20;;
67037;SDS011;53940;53.204;6.590;2024-01-11T00:53:52;1.83;;;1.20;;
67037;SDS011;53940;53.204;6.590;2024-01-11T00:56:52;2.20;;;1.40;;
67037;SDS011;53940;53.204;6.590;2024-01-11T00:59:53;2.00;;;1.30;;
67037;SDS011;53940;53.204;6.590;2024-01-11T01:02:53;1.75;;;1.10;;
67037;SDS011;53940;53.204;6.590;2024-01-11T01:05:54;1.33;;;0.93;;
67037;SDS011;53940;53.204;6.590;2024-01-11T01:08:55;2.53;;;1.20;;
67037;SDS011;53940;53.204;6.590;2024-01-11T01:11:55;2.20;;;1.40;;
67037;SDS011;53940;53.204;6.590;2024-01-11T01:14:56;1.67;;;1.20;;
67037;SDS011;53940;53.204;6.590;2024-01-11T01:17:56;2.05;;;1.35;;
67037;SDS011;53940;53.204;6.590;2024-01-11T01:20:56;2.40;;;1.45;;
67037;SDS011;53940;53.204;6.590;2024-01-11T01:23:57;2.15;;;1.45;;
67037;SDS011;53940;53.204;6.590;2024-01-11T01:26:58;2.30;;;1.75;;
67037;SDS011;53940;53.204;6.590;2024-01-11T01:29:58;2.45;;;1.27;;
67037;SDS011;53940;53.204;6.590;2024-01-11T01:32:59;2.20;;;1.33;;
67037;SDS011;53940;53.204;6.590;2024-01-11T01:35:59;2.40;;;1.70;;
67037;SDS011;53940;53.204;6.590;2024-01-11T01:38:59;2.20;;;1.50;;
67037;SDS011;53940;53.204;6.590;2024-01-11T01:42:00;2.17;;;1.50;;
67037;SDS011;53940;53.204;6.590;2024-01-11T01:45:00;3.70;;;1.60;;
67037;SDS011;53940;53.204;6.590;2024-01-11T01:48:01;2.10;;;1.40;;
67037;SDS011;53940;53.204;6.590;2024-01-11T01:51:02;2.78;;;1.50;;
67037;SDS011;53940;53.204;6.590;2024-01-11T01:54:03;2.30;;;1.70;;
67037;SDS011;53940;53.204;6.590;2024-01-11T01:57:04;2.35;;;1.73;;
67037;SDS011;53940;53.204;6.590;2024-01-11T02:00:04;2.00;;;1.50;;
67037;SDS011;53940;53.204;6.590;2024-01-11T02:03:05;2.80;;;1.83;;
67037;SDS011;53940;53.204;6.590;2024-01-11T02:06:06;2.67;;;1.77;;
67037;SDS011;53940;53.204;6.590;2024-01-11T02:09:07;2.85;;;1.85;;
67037;SDS011;53940;53.204;6.590;2024-01-11T02:12:10;2.22;;;1.63;;
67037;SDS011;53940;53.204;6.590;2024-01-11T02:15:12;2.28;;;1.60;;
67037;SDS011;53940;53.204;6.590;2024-01-11T02:18:13;2.33;;;1.60;;
67037;SDS011;53940;53.204;6.590;2024-01-11T02:21:14;2.10;;;1.60;;
67037;SDS011;53940;53.204;6.590;2024-01-11T02:24:15;2.50;;;1.70;;
67037;SDS011;53940;53.204;6.590;2024-01-11T02:27:16;2.35;;;1.80;;
67037;SDS011;53940;53.204;6.590;2024-01-11T02:30:16;2.28;;;1.52;;
67037;SDS011;53940;53.204;6.590;2024-01-11T02:33:17;2.53;;;1.85;;
67037;SDS011;53940;53.204;6.590;2024-01-11T02:36:19;2.85;;;1.80;;
67037;SDS011;53940;53.204;6.590;2024-01-11T02:39:21;2.20;;;1.70;;
67037;SDS011;53940;53.204;6.590;2024-01-11T02:42:23;2.72;;;1.60;;
67037;SDS011;53940;53.204;6.590;2024-01-11T02:45:24;3.25;;;1.70;;
67037;SDS011;53940;53.204;6.590;2024-01-11T02:48:30;2.35;;;1.65;;
67037;SDS011;53940;53.204;6.590;2024-01-11T02:51:31;2.17;;;1.50;;
67037;SDS011;53940;53.204;6.590;2024-01-11T02:54:31;2.30;;;1.63;;
67037;SDS011;53940;53.204;6.590;2024-01-11T02:57:31;2.65;;;1.80;;
67037;SDS011;53940;53.204;6.590;2024-01-11T03:00:32;2.53;;;1.60;;
67037;SDS011;53940;53.204;6.590;2024-01-11T03:03:32;2.30;;;1.80;;
67037;SDS011;53940;53.204;6.590;2024-01-11T03:06:32;2.55;;;1.80;;
67037;SDS011;53940;53.204;6.590;2024-01-11T03:09:33;2.40;;;1.65;;
67037;SDS011;53940;53.204;6.590;2024-01-11T03:12:34;2.38;;;1.60;;
67037;SDS011;53940;53.204;6.590;2024-01-11T03:15:35;2.28;;;1.60;;
67037;SDS011;53940;53.204;6.590;2024-01-11T03:18:35;2.10;;;1.48;;
67037;SDS011;53940;53.204;6.590;2024-01-11T03:21:40;2.25;;;1.77;;
67037;SDS011;53940;53.204;6.590;2024-01-11T03:24:41;2.08;;;1.50;;
67037;SDS011;53940;53.204;6.590;2024-01-11T03:27:41;1.90;;;1.50;;
67037;SDS011;53940;53.204;6.590;2024-01-11T03:30:42;2.58;;;1.30;;
67037;SDS011;53940;53.204;6.590;2024-01-11T03:33:43;2.28;;;1.50;;
67037;SDS011;53940;53.204;6.590;2024-01-11T03:36:43;2.08;;;1.10;;
67037;SDS011;53940;53.204;6.590;2024-01-11T03:39:43;2.72;;;1.30;;
67037;SDS011;53940;53.204;6.590;2024-01-11T03:42:44;2.47;;;1.30;;
67037;SDS011;53940;53.204;6.590;2024-01-11T03:45:44;1.48;;;1.13;;
67037;SDS011;53940;53.204;6.590;2024-01-11T03:48:45;1.70;;;1.10;;
67037;SDS011;53940;53.204;6.590;2024-01-11T03:51:45;1.65;;;1.10;;
67037;SDS011;53940;53.204;6.590;2024-01-11T03:54:45;1.58;;;1.10;;
67037;SDS011;53940;53.204;6.590;2024-01-11T03:57:46;1.90;;;1.00;;
67037;SDS011;53940;53.204;6.590;2024-01-11T04:00:46;2.20;;;1.33;;
67037;SDS011;53940;53.204;6.590;2024-01-11T04:03:46;1.88;;;1.20;;
67037;SDS011;53940;53.204;6.590;2024-01-11T04:06:47;1.40;;;1.00;;
67037;SDS011;53940;53.204;6.590;2024-01-11T04:09:47;1.23;;;0.90;;
67037;SDS011;53940;53.204;6.590;2024-01-11T04:12:47;1.75;;;1.00;;
67037;SDS011;53940;53.204;6.590;2024-01-11T04:15:48;1.40;;;0.90;;
67037;SDS011;53940;53.204;6.590;2024-01-11T04:18:48;1.40;;;0.88;;
67037;SDS011;53940;53.204;6.590;2024-01-11T04:21:48;1.42;;;1.00;;
67037;SDS011;53940;53.204;6.590;2024-01-11T04:24:49;1.60;;;1.20;;
67037;SDS011;53940;53.204;6.590;2024-01-11T04:27:49;1.75;;;1.10;;
67037;SDS011;53940;53.204;6.590;2024-01-11T04:30:50;1.63;;;0.95;;
67037;SDS011;53940;53.204;6.590;2024-01-11T04:33:50;1.40;;;0.82;;
67037;SDS011;53940;53.204;6.590;2024-01-11T04:36:50;1.33;;;0.90;;
67037;SDS011;53940;53.204;6.590;2024-01-11T04:39:51;1.42;;;1.00;;
67037;SDS011;53940;53.204;6.590;2024-01-11T04:42:51;1.45;;;0.82;;
67037;SDS011;53940;53.204;6.590;2024-01-11T04:45:51;1.20;;;0.90;;
67037;SDS011;53940;53.204;6.590;2024-01-11T04:48:52;1.25;;;0.80;;
67037;SDS011;53940;53.204;6.590;2024-01-11T04:51:53;0.98;;;0.80;;
67037;SDS011;53940;53.204;6.590;2024-01-11T04:54:54;1.40;;;0.90;;
67037;SDS011;53940;53.204;6.590;2024-01-11T04:57:54;1.27;;;0.80;;
67037;SDS011;53940;53.204;6.590;2024-01-11T05:00:54;0.95;;;0.75;;
67037;SDS011;53940;53.204;6.590;2024-01-11T05:03:55;1.30;;;0.85;;
67037;SDS011;53940;53.204;6.590;2024-01-11T05:06:55;1.40;;;0.80;;
67037;SDS011;53940;53.204;6.590;2024-01-11T05:09:56;1.77;;;0.98;;
67037;SDS011;53940;53.204;6.590;2024-01-11T05:12:56;1.60;;;1.00;;
67037;SDS011;53940;53.204;6.590;2024-01-11T05:15:56;1.40;;;0.90;;
67037;SDS011;53940;53.204;6.590;2024-01-11T05:18:57;2.17;;;1.00;;
67037;SDS011;53940;53.204;6.590;2024-01-11T05:21:58;1.25;;;0.82;;
67037;SDS011;53940;53.204;6.590;2024-01-11T05:24:58;1.10;;;0.80;;
67037;SDS011;53940;53.204;6.590;2024-01-11T05:28:02;1.15;;;0.82;;
67037;SDS011;53940;53.204;6.590;2024-01-11T05:31:04;1.35;;;0.90;;
67037;SDS011;53940;53.204;6.590;2024-01-11T05:34:06;1.33;;;0.80;;
67037;SDS011;53940;53.204;6.590;2024-01-11T05:37:06;1.30;;;0.80;;
67037;SDS011;53940;53.204;6.590;2024-01-11T05:40:06;0.98;;;0.70;;
67037;SDS011;53940;53.204;6.590;2024-01-11T05:43:09;0.98;;;0.68;;
67037;SDS011;53940;53.204;6.590;2024-01-11T05:46:09;1.42;;;0.82;;
67037;SDS011;53940;53.204;6.590;2024-01-11T05:49:10;1.30;;;0.90;;
67037;SDS011;53940;53.204;6.590;2024-01-11T05:52:10;1.20;;;0.70;;
67037;SDS011;53940;53.204;6.590;2024-01-11T05:55:11;1.20;;;0.70;;
67037;SDS011;53940;53.204;6.590;2024-01-11T05:58:11;2.08;;;0.90;;
67037;SDS011;53940;53.204;6.590;2024-01-11T06:01:11;1.27;;;0.73;;
67037;SDS011;53940;53.204;6.590;2024-01-11T06:04:12;0.93;;;0.70;;
67037;SDS011;53940;53.204;6.590;2024-01-11T06:07:12;1.15;;;0.85;;
67037;SDS011;53940;53.204;6.590;2024-01-11T06:10:13;1.45;;;0.82;;
67037;SDS011;53940;53.204;6.590;2024-01-11T06:13:14;0.90;;;0.68;;
67037;SDS011;53940;53.204;6.590;2024-01-11T06:16:15;1.35;;;0.80;;
67037;SDS011;53940;53.204;6.590;2024-01-11T06:19:15;1.17;;;0.95;;
67037;SDS011;53940;53.204;6.590;2024-01-11T06:22:15;1.60;;;0.85;;
67037;SDS011;53940;53.204;6.590;2024-01-11T06:25:16;1.20;;;0.80;;
67037;SDS011;53940;53.204;6.590;2024-01-11T06:28:16;0.80;;;0.60;;
67037;SDS011;53940;53.204;6.590;2024-01-11T06:31:16;1.40;;;0.80;;
67037;SDS011;53940;53.204;6.590;2024-01-11T06:34:18;0.82;;;0.70;;
67037;SDS011;53940;53.204;6.590;2024-01-11T06:37:18;1.15;;;0.80;;
67037;SDS011;53940;53.204;6.590;2024-01-11T06:40:18;1.08;;;0.80;;
67037;SDS011;53940;53.204;6.590;2024-01-11T06:43:19;1.30;;;0.70;;
67037;SDS011;53940;53.204;6.590;2024-01-11T06:46:20;0.77;;;0.60;;
67037;SDS011;53940;53.204;6.590;2024-01-11T06:49:21;1.25;;;0.70;;
67037;SDS011;53940;53.204;6.590;2024-01-11T06:52:22;1.65;;;0.80;;
67037;SDS011;53940;53.204;6.590;2024-01-11T06:55:22;1.67;;;0.70;;
67037;SDS011;53940;53.204;6.590;2024-01-11T06:58:23;1.55;;;0.80;;
67037;SDS011;53940;53.204;6.590;2024-01-11T07:01:23;1.30;;;0.60;;
67037;SDS011;53940;53.204;6.590;2024-01-11T07:04:23;1.30;;;0.77;;
67037;SDS011;53940;53.204;6.590;2024-01-11T07:07:24;0.93;;;0.70;;
67037;SDS011;53940;53.204;6.590;2024-01-11T07:10:26;2.20;;;0.88;;
67037;SDS011;53940;53.204;6.590;2024-01-11T07:13:26;1.40;;;0.90;;
67037;SDS011;53940;53.204;6.590;2024-01-11T07:16:27;0.98;;;0.70;;
67037;SDS011;53940;53.204;6.590;2024-01-11T07:19:27;1.42;;;0.70;;
67037;SDS011;53940;53.204;6.590;2024-01-11T07:22:27;0.98;;;0.65;;
67037;SDS011;53940;53.204;6.590;2024-01-11T07:25:28;1.08;;;0.70;;
67037;SDS011;53940;53.204;6.590;2024-01-11T07:28:28;1.15;;;0.80;;
67037;SDS011;53940;53.204;6.590;2024-01-11T07:31:28;1.67;;;0.90;;
67037;SDS011;53940;53.204;6.590;2024-01-11T07:34:29;1.52;;;0.73;;
67037;SDS011;53940;53.204;6.590;2024-01-11T07:37:29;1.02;;;0.75;;
67037;SDS011;53940;53.204;6.590;2024-01-11T07:40:30;1.20;;;0.80;;
67037;SDS011;53940;53.204;6.590;2024-01-11T07:43:30;1.17;;;0.80;;
67037;SDS011;53940;53.204;6.590;2024-01-11T07:46:35;1.20;;;0.70;;
67037;SDS011;53940;53.204;6.590;2024-01-11T07:49:36;0.90;;;0.63;;
67037;SDS011;53940;53.204;6.590;2024-01-11T07:52:36;1.60;;;0.80;;
67037;SDS011;53940;53.204;6.590;2024-01-11T07:55:37;1.30;;;0.70;;
67037;SDS011;53940;53.204;6.590;2024-01-11T07:58:38;1.40;;;0.80;;
67037;SDS011;53940;53.204;6.590;2024-01-11T08:01:41;1.15;;;0.77;;
67037;SDS011;53940;53.204;6.590;2024-01-11T08:04:41;3.28;;;0.80;;
67037;SDS011;53940;53.204;6.590;2024-01-11T08:07:42;2.60;;;0.80;;
67037;SDS011;53940;53.204;6.590;2024-01-11T08:10:42;1.30;;;0.73;;
67037;SDS011;53940;53.204;6.590;2024-01-11T08:13:43;1.67;;;0.88;;
67037;SDS011;53940;53.204;6.590;2024-01-11T08:16:43;2.42;;;0.90;;
67037;SDS011;53940;53.204;6.590;2024-01-11T08:19:43;1.80;;;0.70;;
67037;SDS011;53940;53.204;6.590;2024-01-11T08:22:44;1.40;;;0.70;;
67037;SDS011;53940;53.204;6.590;2024-01-11T08:25:46;0.93;;;0.80;;
67037;SDS011;53940;53.204;6.590;2024-01-11T08:28:46;1.92;;;0.70;;
67037;SDS011;53940;53.204;6.590;2024-01-11T08:31:46;2.03;;;0.70;;
67037;SDS011;53940;53.204;6.590;2024-01-11T08:34:47;1.80;;;0.80;;
67037;SDS011;53940;53.204;6.590;2024-01-11T08:37:47;1.45;;;0.80;;
67037;SDS011;53940;53.204;6.590;2024-01-11T08:40:48;2.13;;;0.88;;
67037;SDS011;53940;53.204;6.590;2024-01-11T08:43:48;1.15;;;0.70;;
67037;SDS011;53940;53.204;6.590;2024-01-11T08:46:48;1.80;;;0.80;;
67037;SDS011;53940;53.204;6.590;2024-01-11T08:49:49;1.52;;;0.80;;
67037;SDS011;53940;53.204;6.590;2024-01-11T08:52:50;1.52;;;0.80;;
67037;SDS011;53940;53.204;6.590;2024-01-11T08:55:50;1.42;;;0.77;;
67037;SDS011;53940;53.204;6.590;2024-01-11T08:58:50;1.30;;;0.80;;
67037;SDS011;53940;53.204;6.590;2024-01-11T09:01:53;1.02;;;0.70;;
67037;SDS011;53940;53.204;6.590;2024-01-11T09:04:54;1.23;;;0.60;;
67037;SDS011;53940;53.204;6.590;2024-01-11T09:07:54;2.00;;;0.68;;
67037;SDS011;53940;53.204;6.590;2024-01-11T09:10:55;1.13;;;0.65;;
67037;SDS011;53940;53.204;6.590;2024-01-11T09:13:58;1.83;;;0.80;;
67037;SDS011;53940;53.204;6.590;2024-01-11T09:16:59;1.80;;;0.90;;
67037;SDS011;53940;53.204;6.590;2024-01-11T09:19:59;1.20;;;0.80;;
67037;SDS011;53940;53.204;6.590;2024-01-11T09:23:00;1.33;;;0.60;;
67037;SDS011;53940;53.204;6.590;2024-01-11T09:26:03;1.85;;;0.80;;
67037;SDS011;53940;53.204;6.590;2024-01-11T09:29:03;1.77;;;0.60;;
67037;SDS011;53940;53.204;6.590;2024-01-11T09:32:04;1.13;;;0.80;;
67037;SDS011;53940;53.204;6.590;2024-01-11T09:35:05;1.27;;;0.80;;
67037;SDS011;53940;53.204;6.590;2024-01-11T09:38:06;1.48;;;0.70;;
67037;SDS011;53940;53.204;6.590;2024-01-11T09:41:07;1.75;;;0.77;;
67037;SDS011;53940;53.204;6.590;2024-01-11T09:44:09;1.30;;;0.70;;
67037;SDS011;53940;53.204;6.590;2024-01-11T09:47:10;0.98;;;0.60;;
67037;SDS011;53940;53.204;6.590;2024-01-11T09:50:11;1.40;;;0.70;;
67037;SDS011;53940;53.204;6.590;2024-01-11T09:53:20;1.17;;;0.55;;
67037;SDS011;53940;53.204;6.590;2024-01-11T09:56:23;1.50;;;0.70;;
67037;SDS011;53940;53.204;6.590;2024-01-11T09:59:24;1.42;;;0.68;;
67037;SDS011;53940;53.204;6.590;2024-01-11T10:02:25;2.03;;;0.70;;
67037;SDS011;53940;53.204;6.590;2024-01-11T10:05:29;1.42;;;0.70;;
67037;SDS011;53940;53.204;6.590;2024-01-11T10:08:30;1.90;;;0.70;;
67037;SDS011;53940;53.204;6.590;2024-01-11T10:11:31;1.42;;;0.70;;
67037;SDS011;53940;53.204;6.590;2024-01-11T10:14:34;0.80;;;0.60;;
67037;SDS011;53940;53.204;6.590;2024-01-11T10:17:43;1.00;;;0.60;;
67037;SDS011;53940;53.204;6.590;2024-01-11T10:20:44;1.63;;;0.65;;
67037;SDS011;53940;53.204;6.590;2024-01-11T10:23:45;1.83;;;0.90;;
67037;SDS011;53940;53.204;6.590;2024-01-11T10:26:45;2.13;;;0.80;;
67037;SDS011;53940;53.204;6.590;2024-01-11T10:29:46;1.73;;;0.80;;
67037;SDS011;53940;53.204;6.590;2024-01-11T10:32:46;0.82;;;0.60;;
67037;SDS011;53940;53.204;6.590;2024-01-11T10:35:47;1.38;;;0.70;;
67037;SDS011;53940;53.204;6.590;2024-01-11T10:38:51;2.42;;;0.80;;
67037;SDS011;53940;53.204;6.590;2024-01-11T10:42:04;3.72;;;1.00;;
67037;SDS011;53940;53.204;6.590;2024-01-11T10:45:07;1.52;;;0.70;;
67037;SDS011;53940;53.204;6.590;2024-01-11T10:48:15;2.60;;;0.80;;
67037;SDS011;53940;53.204;6.590;2024-01-11T10:51:16;3.20;;;0.80;;
67037;SDS011;53940;53.204;6.590;2024-01-11T10:54:22;1.17;;;0.65;;
67037;SDS011;53940;53.204;6.590;2024-01-11T10:57:24;0.80;;;0.50;;
67037;SDS011;53940;53.204;6.590;2024-01-11T11:00:24;1.00;;;0.52;;
67037;SDS011;53940;53.204;6.590;2024-01-11T11:03:25;1.63;;;0.80;;
67037;SDS011;53940;53.204;6.590;2024-01-11T11:06:26;1.30;;;0.70;;
67037;SDS011;53940;53.204;6.590;2024-01-11T11:09:28;1.20;;;0.60;;
67037;SDS011;53940;53.204;6.590;2024-01-11T11:12:31;1.35;;;0.60;;
67037;SDS011;53940;53.204;6.590;2024-01-11T11:15:33;1.20;;;0.70;;
67037;SDS011;53940;53.204;6.590;2024-01-11T11:18:36;1.00;;;0.60;;
67037;SDS011;53940;53.204;6.590;2024-01-11T11:21:41;2.22;;;0.73;;
67037;SDS011;53940;53.204;6.590;2024-01-11T11:24:42;2.22;;;0.70;;
67037;SDS011;53940;53.204;6.590;2024-01-11T11:27:43;1.80;;;0.80;;
67037;SDS011;53940;53.204;6.590;2024-01-11T11:30:44;1.48;;;0.82;;
67037;SDS011;53940;53.204;6.590;2024-01-11T11:33:45;0.77;;;0.60;;
67037;SDS011;53940;53.204;6.590;2024-01-11T11:36:49;1.23;;;0.75;;
67037;SDS011;53940;53.204;6.590;2024-01-11T11:39:54;1.65;;;0.85;;
67037;SDS011;53940;53.204;6.590;2024-01-11T11:42:55;1.27;;;0.70;;
67037;SDS011;53940;53.204;6.590;2024-01-11T11:45:56;1.00;;;0.50;;
67037;SDS011;53940;53.204;6.590;2024-01-11T11:48:57;3.55;;;0.70;;
67037;SDS011;53940;53.204;6.590;2024-01-11T11:51:57;2.13;;;0.70;;
67037;SDS011;53940;53.204;6.590;2024-01-11T11:54:58;4.65;;;0.80;;
67037;SDS011;53940;53.204;6.590;2024-01-11T11:57:59;3.53;;;1.00;;
67037;SDS011;53940;53.204;6.590;2024-01-11T12:01:00;1.88;;;0.70;;
67037;SDS011;53940;53.204;6.590;2024-01-11T12:04:01;3.45;;;0.90;;
67037;SDS011;53940;53.204;6.590;2024-01-11T12:07:02;1.70;;;0.68;;
67037;SDS011;53940;53.204;6.590;2024-01-11T12:10:03;1.77;;;0.70;;
67037;SDS011;53940;53.204;6.590;2024-01-11T12:13:04;2.28;;;0.73;;
67037;SDS011;53940;53.204;6.590;2024-01-11T12:16:06;2.13;;;0.65;;
67037;SDS011;53940;53.204;6.590;2024-01-11T12:19:07;2.03;;;0.73;;
67037;SDS011;53940;53.204;6.590;2024-01-11T12:22:07;3.20;;;0.80;;
67037;SDS011;53940;53.204;6.590;2024-01-11T12:25:08;2.55;;;1.00;;
67037;SDS011;53940;53.204;6.590;2024-01-11T12:28:09;2.42;;;1.00;;
67037;SDS011;53940;53.204;6.590;2024-01-11T12:31:09;2.28;;;0.70;;
67037;SDS011;53940;53.204;6.590;2024-01-11T12:34:13;2.25;;;0.80;;
67037;SDS011;53940;53.204;6.590;2024-01-11T12:37:15;3.92;;;0.90;;
67037;SDS011;53940;53.204;6.590;2024-01-11T12:40:16;4.63;;;0.73;;
67037;SDS011;53940;53.204;6.590;2024-01-11T12:43:16;3.60;;;0.90;;
67037;SDS011;53940;53.204;6.590;2024-01-11T12:46:16;4.05;;;1.30;;
67037;SDS011;53940;53.204;6.590;2024-01-11T12:49:17;4.22;;;0.88;;
67037;SDS011;53940;53.204;6.590;2024-01-11T12:52:18;4.07;;;1.00;;
67037;SDS011;53940;53.204;6.590;2024-01-11T12:55:19;2.25;;;0.80;;
67037;SDS011;53940;53.204;6.590;2024-01-11T12:58:20;1.85;;;0.73;;
67037;SDS011;53940;53.204;6.590;2024-01-11T13:01:22;2.28;;;0.60;;
67037;SDS011;53940;53.204;6.590;2024-01-11T13:04:22;2.03;;;0.68;;
67037;SDS011;53940;53.204;6.590;2024-01-11T13:07:23;3.55;;;1.10;;
67037;SDS011;53940;53.204;6.590;2024-01-11T13:10:23;1.60;;;0.60;;
67037;SDS011;53940;53.204;6.590;2024-01-11T13:13:27;2.78;;;0.98;;
67037;SDS011;53940;53.204;6.590;2024-01-11T13:16:30;3.28;;;1.20;;
67037;SDS011;53940;53.204;6.590;2024-01-11T13:19:30;2.30;;;0.90;;
67037;SDS011;53940;53.204;6.590;2024-01-11T13:22:31;5.70;;;1.60;;
67037;SDS011;53940;53.204;6.590;2024-01-11T13:25:31;5.22;;;1.52;;
67037;SDS011;53940;53.204;6.590;2024-01-11T13:28:31;5.35;;;1.67;;
67037;SDS011;53940;53.204;6.590;2024-01-11T13:31:33;7.40;;;1.80;;
67037;SDS011;53940;53.204;6.590;2024-01-11T13:34:33;4.53;;;2.00;;
67037;SDS011;53940;53.204;6.590;2024-01-11T13:37:34;5.28;;;1.90;;
67037;SDS011;53940;53.204;6.590;2024-01-11T13:40:34;7.78;;;1.90;;
67037;SDS011;53940;53.204;6.590;2024-01-11T13:43:35;5.63;;;2.00;;
67037;SDS011;53940;53.204;6.590;2024-01-11T13:46:35;5.72;;;2.10;;
67037;SDS011;53940;53.204;6.590;2024-01-11T13:49:35;4.53;;;1.63;;
67037;SDS011;53940;53.204;6.590;2024-01-11T13:52:36;4.65;;;1.50;;
67037;SDS011;53940;53.204;6.590;2024-01-11T13:55:36;4.68;;;1.55;;
67037;SDS011;53940;53.204;6.590;2024-01-11T13:58:39;4.45;;;1.83;;
67037;SDS011;53940;53.204;6.590;2024-01-11T14:01:40;3.10;;;1.80;;
67037;SDS011;53940;53.204;6.590;2024-01-11T14:04:40;3.40;;;1.40;;
67037;SDS011;53940;53.204;6.590;2024-01-11T14:07:41;4.35;;;1.55;;
67037;SDS011;53940;53.204;6.590;2024-01-11T14:10:43;3.50;;;1.58;;
67037;SDS011;53940;53.204;6.590;2024-01-11T14:13:43;3.22;;;1.65;;
67037;SDS011;53940;53.204;6.590;2024-01-11T14:16:44;5.47;;;1.90;;
67037;SDS011;53940;53.204;6.590;2024-01-11T14:19:45;4.93;;;1.50;;
67037;SDS011;53940;53.204;6.590;2024-01-11T14:22:46;7.30;;;1.70;;
67037;SDS011;53940;53.204;6.590;2024-01-11T14:25:49;3.47;;;1.50;;
67037;SDS011;53940;53.204;6.590;2024-01-11T14:28:50;3.65;;;1.42;;
67037;SDS011;53940;53.204;6.590;2024-01-11T14:31:51;3.03;;;1.40;;
67037;SDS011;53940;53.204;6.590;2024-01-11T14:34:52;3.17;;;1.20;;
67037;SDS011;53940;53.204;6.590;2024-01-11T14:37:52;2.80;;;1.30;;
67037;SDS011;53940;53.204;6.590;2024-01-11T14:40:53;4.57;;;1.38;;
67037;SDS011;53940;53.204;6.590;2024-01-11T14:43:53;4.07;;;1.45;;
67037;SDS011;53940;53.204;6.590;2024-01-11T14:46:54;3.47;;;1.25;;
67037;SDS011;53940;53.204;6.590;2024-01-11T14:49:55;2.60;;;1.20;;
67037;SDS011;53940;53.204;6.590;2024-01-11T14:52:55;3.35;;;1.27;;
67037;SDS011;53940;53.204;6.590;2024-01-11T14:55:56;2.83;;;1.20;;
67037;SDS011;53940;53.204;6.590;2024-01-11T14:58:56;2.28;;;1.30;;
67037;SDS011;53940;53.204;6.590;2024-01-11T15:01:57;4.70;;;1.65;;
67037;SDS011;53940;53.204;6.590;2024-01-11T15:04:57;2.90;;;1.30;;
67037;SDS011;53940;53.204;6.590;2024-01-11T15:07:59;3.38;;;1.20;;
67037;SDS011;53940;53.204;6.590;2024-01-11T15:10:59;3.13;;;1.10;;
67037;SDS011;53940;53.204;6.590;2024-01-11T15:14:00;2.60;;;1.30;;
67037;SDS011;53940;53.204;6.590;2024-01-11T15:17:00;2.58;;;1.17;;
67037;SDS011;53940;53.204;6.590;2024-01-11T15:20:02;4.30;;;1.17;;
67037;SDS011;53940;53.204;6.590;2024-01-11T15:23:04;3.00;;;1.33;;
67037;SDS011;53940;53.204;6.590;2024-01-11T15:26:05;2.92;;;1.05;;
67037;SDS011;53940;53.204;6.590;2024-01-11T15:29:05;3.03;;;1.15;;
67037;SDS011;53940;53.204;6.590;2024-01-11T15:32:05;2.85;;;1.10;;
67037;SDS011;53940;53.204;6.590;2024-01-11T15:35:06;3.28;;;1.10;;
67037;SDS011;53940;53.204;6.590;2024-01-11T15:38:11;2.75;;;1.05;;
67037;SDS011;53940;53.204;6.590;2024-01-11T15:41:12;3.42;;;1.30;;
67037;SDS011;53940;53.204;6.590;2024-01-11T15:44:12;2.58;;;1.20;;
67037;SDS011;53940;53.204;6.590;2024-01-11T15:47:12;2.03;;;0.90;;
67037;SDS011;53940;53.204;6.590;2024-01-11T15:50:13;3.00;;;1.05;;
67037;SDS011;53940;53.204;6.590;2024-01-11T15:53:13;2.08;;;0.98;;
67037;SDS011;53940;53.204;6.590;2024-01-11T15:56:14;2.53;;;1.00;;
67037;SDS011;53940;53.204;6.590;2024-01-11T15:59:15;2.88;;;0.90;;
67037;SDS011;53940;53.204;6.590;2024-01-11T16:02:16;2.33;;;1.00;;
67037;SDS011;53940;53.204;6.590;2024-01-11T16:05:16;2.70;;;1.10;;
67037;SDS011;53940;53.204;6.590;2024-01-11T16:08:16;2.95;;;1.00;;
67037;SDS011;53940;53.204;6.590;2024-01-11T16:11:17;1.90;;;0.93;;
67037;SDS011;53940;53.204;6.590;2024-01-11T16:14:18;1.60;;;0.80;;
67037;SDS011;53940;53.204;6.590;2024-01-11T16:17:19;2.85;;;0.98;;
67037;SDS011;53940;53.204;6.590;2024-01-11T16:20:19;2.17;;;1.25;;
67037;SDS011;53940;53.204;6.590;2024-01-11T16:23:19;2.38;;;1.10;;
67037;SDS011;53940;53.204;6.590;2024-01-11T16:26:20;1.83;;;1.00;;
67037;SDS011;53940;53.204;6.590;2024-01-11T16:29:20;2.63;;;0.90;;
67037;SDS011;53940;53.204;6.590;2024-01-11T16:32:21;2.30;;;0.88;;
67037;SDS011;53940;53.204;6.590;2024-01-11T16:35:22;2.95;;;1.00;;
67037;SDS011;53940;53.204;6.590;2024-01-11T16:38:22;2.25;;;1.20;;
67037;SDS011;53940;53.204;6.590;2024-01-11T16:41:23;2.35;;;0.80;;
67037;SDS011;53940;53.204;6.590;2024-01-11T16:44:24;2.90;;;0.98;;
67037;SDS011;53940;53.204;6.590;2024-01-11T16:47:24;2.47;;;1.20;;
67037;SDS011;53940;53.204;6.590;2024-01-11T16:50:25;2.90;;;1.00;;
67037;SDS011;53940;53.204;6.590;2024-01-11T16:53:25;1.90;;;1.00;;
67037;SDS011;53940;53.204;6.590;2024-01-11T16:56:25;2.03;;;0.93;;
67037;SDS011;53940;53.204;6.590;2024-01-11T16:59:26;1.75;;;0.68;;
67037;SDS011;53940;53.204;6.590;2024-01-11T17:02:26;2.05;;;0.90;;
67037;SDS011;53940;53.204;6.590;2024-01-11T17:05:30;1.77;;;0.75;;
67037;SDS011;53940;53.204;6.590;2024-01-11T17:08:31;1.65;;;0.85;;
67037;SDS011;53940;53.204;6.590;2024-01-11T17:11:32;2.45;;;0.95;;
67037;SDS011;53940;53.204;6.590;2024-01-11T17:14:39;1.45;;;0.75;;
67037;SDS011;53940;53.204;6.590;2024-01-11T17:17:39;2.42;;;1.00;;
67037;SDS011;53940;53.204;6.590;2024-01-11T17:20:40;2.15;;;0.98;;
67037;SDS011;53940;53.204;6.590;2024-01-11T17:23:41;1.63;;;0.80;;
67037;SDS011;53940;53.204;6.590;2024-01-11T17:26:42;2.10;;;0.85;;
67037;SDS011;53940;53.204;6.590;2024-01-11T17:29:42;2.10;;;1.00;;
67037;SDS011;53940;53.204;6.590;2024-01-11T17:32:42;1.55;;;0.70;;
67037;SDS011;53940;53.204;6.590;2024-01-11T17:35:43;2.38;;;0.77;;
67037;SDS011;53940;53.204;6.590;2024-01-11T17:38:45;1.20;;;0.77;;
67037;SDS011;53940;53.204;6.590;2024-01-11T17:41:45;1.95;;;0.90;;
67037;SDS011;53940;53.204;6.590;2024-01-11T17:44:45;1.55;;;0.68;;
67037;SDS011;53940;53.204;6.590;2024-01-11T17:47:46;1.50;;;0.80;;
67037;SDS011;53940;53.204;6.590;2024-01-11T17:50:47;2.28;;;0.95;;
67037;SDS011;53940;53.204;6.590;2024-01-11T17:53:47;2.17;;;0.88;;
67037;SDS011;53940;53.204;6.590;2024-01-11T17:56:51;1.42;;;0.70;;
67037;SDS011;53940;53.204;6.590;2024-01-11T17:59:52;2.08;;;0.77;;
67037;SDS011;53940;53.204;6.590;2024-01-11T18:02:52;1.90;;;0.70;;
67037;SDS011;53940;53.204;6.590;2024-01-11T18:05:52;3.70;;;0.80;;
67037;SDS011;53940;53.204;6.590;2024-01-11T18:08:53;1.67;;;1.00;;
67037;SDS011;53940;53.204;6.590;2024-01-11T18:11:53;3.13;;;1.13;;